Time;durP1;ratioP1;P1;durP2;ratioP2;P2;SDS_P1;SDS_P2;PMS_P1;PMS_P2;Temp;Humidity;BMP_temperature;BMP_pressure;BME280_temperature;BME280_humidity;BME280_pressure;Samples;Min_cycle;Max_cycle;Signal;HPM_P1;HPM_P2
2023/01/07 00:01:59;;;;;;;5.68;2.97;;;12.90;99.90;;;;;;10482625;28;20094;-27
2023/01/07 00:07:01;;;;;;;5.40;2.60;;;14.00;99.90;;;;;;10486384;28;20053;-27
2023/01/07 00:12:03;;;;;;;6.28;2.97;;;13.80;99.90;;;;;;10488873;28;20044;-27
2023/01/07 00:17:07;;;;;;;3.93;2.73;;;13.60;99.90;;;;;;10490792;28;20048;-26
2023/01/07 00:22:08;;;;;;;5.45;3.33;;;12.70;99.90;;;;;;10489937;28;20086;-26
2023/01/07 00:27:10;;;;;;;8.02;4.00;;;13.10;99.90;;;;;;10487511;28;20474;-27
2023/01/07 00:32:13;;;;;;;6.18;3.10;;;12.30;99.90;;;;;;10489875;28;20048;-27
2023/01/07 00:47:55;;;;;;;4.25;2.38;;;13.60;99.90;;;;;;10476795;28;20044;-27
2023/01/07 00:52:58;;;;;;;5.28;2.50;;;14.00;99.90;;;;;;10482356;28;20049;-26
2023/01/07 00:58:00;;;;;;;5.05;3.15;;;12.70;99.90;;;;;;10486123;28;20048;-26
2023/01/07 01:03:03;;;;;;;7.85;1.58;;;12.20;99.90;;;;;;10483722;28;20731;-27
2023/01/07 01:08:06;;;;;;;2.58;1.80;;;13.50;99.90;;;;;;10484211;28;20049;-28
2023/01/07 01:13:09;;;;;;;3.33;2.00;;;14.40;99.90;;;;;;10485183;28;20519;-26
2023/01/07 01:18:13;;;;;;;4.68;1.90;;;15.00;99.90;;;;;;10488866;28;20105;-26
2023/01/07 01:23:14;;;;;;;7.75;2.67;;;15.80;99.90;;;;;;10484541;28;20074;-26
2023/01/07 01:28:16;;;;;;;6.53;2.45;;;14.00;99.90;;;;;;10482376;28;20441;-25
2023/01/07 01:33:20;;;;;;;2.35;1.40;;;14.80;99.90;;;;;;10472285;28;20121;-26
2023/01/07 01:38:21;;;;;;;3.20;2.15;;;16.20;99.90;;;;;;10473411;28;20135;-26
2023/01/07 01:43:30;;;;;;;3.07;1.60;;;16.00;99.90;;;;;;10480496;28;20091;-26
2023/01/07 01:48:38;;;;;;;8.45;2.60;;;16.40;99.90;;;;;;10477133;28;20052;-26
2023/01/07 01:53:40;;;;;;;2.92;1.30;;;15.60;99.90;;;;;;10481354;28;20102;-26
2023/01/07 01:58:45;;;;;;;4.30;1.40;;;16.60;99.90;;;;;;10477469;28;20044;-26
2023/01/07 02:03:49;;;;;;;5.00;2.50;;;15.60;99.90;;;;;;10479140;28;20711;-26
2023/01/07 02:08:52;;;;;;;3.35;1.45;;;15.00;99.90;;;;;;10479933;28;20052;-27
2023/01/07 02:14:07;;;;;;;2.67;1.35;;;15.80;99.90;;;;;;10473005;28;20064;-26
2023/01/07 02:19:36;;;;;;;3.83;2.30;;;15.70;99.90;;;;;;10480901;28;20526;-27
2023/01/07 02:24:56;;;;;;;4.80;1.40;;;15.60;99.90;;;;;;10463637;28;20539;-26
2023/01/07 02:30:32;;;;;;;3.40;1.88;;;16.40;99.90;;;;;;10488310;28;20048;-26
2023/01/07 02:36:01;;;;;;;2.65;1.48;;;15.60;99.90;;;;;;10389257;28;20048;-25
2023/01/07 02:41:09;;;;;;;6.93;2.20;;;16.80;99.90;;;;;;10479383;28;20044;-27
2023/01/07 02:46:19;;;;;;;3.83;1.85;;;14.70;99.90;;;;;;10482221;28;20466;-26
2023/01/07 02:51:30;;;;;;;3.40;1.98;;;15.40;99.90;;;;;;10479067;28;20503;-27
2023/01/07 02:56:45;;;;;;;2.60;1.30;;;15.50;99.90;;;;;;10476597;28;20540;-27
2023/01/07 03:02:04;;;;;;;6.65;1.02;;;16.50;99.90;;;;;;10479434;28;20139;-26
2023/01/07 03:07:24;;;;;;;2.17;1.08;;;16.60;99.90;;;;;;10475083;28;20183;-27
2023/01/07 03:12:34;;;;;;;2.83;1.23;;;16.30;99.90;;;;;;10490984;28;20110;-26
2023/01/07 03:17:41;;;;;;;2.80;1.15;;;17.00;99.90;;;;;;10487158;28;20056;-27
2023/01/07 03:22:46;;;;;;;1.85;1.30;;;16.60;99.90;;;;;;10480764;28;20571;-26
2023/01/07 03:27:50;;;;;;;2.15;1.25;;;16.60;99.90;;;;;;10493808;28;20474;-27
2023/01/07 03:32:56;;;;;;;3.53;1.33;;;16.50;99.90;;;;;;10490068;28;20049;-27
2023/01/07 03:38:01;;;;;;;1.98;1.05;;;16.50;99.90;;;;;;10490473;28;20141;-26
2023/01/07 03:43:03;;;;;;;1.55;1.25;;;16.60;99.90;;;;;;10488235;28;20131;-27
2023/01/07 03:48:05;;;;;;;3.43;1.57;;;16.80;99.90;;;;;;10486812;28;20449;-27
2023/01/07 03:53:08;;;;;;;3.83;1.70;;;16.50;99.90;;;;;;10482894;28;20431;-26
2023/01/07 03:58:10;;;;;;;3.88;1.48;;;17.10;98.10;;;;;;10477391;28;20681;-27
2023/01/07 04:03:12;;;;;;;6.43;2.33;;;16.60;99.90;;;;;;10493510;28;20097;-27
2023/01/07 04:08:15;;;;;;;3.00;1.23;;;17.00;97.50;;;;;;10492433;28;20052;-25
2023/01/07 04:13:17;;;;;;;1.33;0.88;;;17.00;99.20;;;;;;10474327;28;20129;-26
2023/01/07 04:18:19;;;;;;;1.23;1.07;;;17.30;97.70;;;;;;10487768;28;20076;-26
2023/01/07 04:23:22;;;;;;;0.87;0.70;;;17.40;97.10;;;;;;10490266;28;20032;-26
2023/01/07 04:28:24;;;;;;;1.75;1.17;;;17.90;94.70;;;;;;10490415;28;20047;-26
2023/01/07 04:33:26;;;;;;;3.75;1.25;;;17.80;94.80;;;;;;10490662;28;20044;-26
2023/01/07 04:38:30;;;;;;;1.80;1.20;;;17.40;96.30;;;;;;10485940;28;20812;-26
2023/01/07 04:43:31;;;;;;;5.38;2.55;;;17.20;97.20;;;;;;10488908;28;20074;-27
2023/01/07 04:48:33;;;;;;;3.87;2.40;;;17.10;95.20;;;;;;10491732;28;20094;-27
2023/01/07 04:53:37;;;;;;;1.88;0.95;;;17.00;98.20;;;;;;10491677;28;20131;-26
2023/01/07 04:58:39;;;;;;;1.95;1.05;;;17.60;96.10;;;;;;10483672;28;20087;-26
2023/01/07 05:03:40;;;;;;;1.75;1.17;;;17.70;95.50;;;;;;10477957;28;20102;-26
2023/01/07 05:08:44;;;;;;;4.73;1.73;;;17.40;96.70;;;;;;10489584;28;20123;-26
2023/01/07 05:13:45;;;;;;;1.48;1.00;;;17.80;95.20;;;;;;10485874;28;20131;-26
2023/01/07 05:18:47;;;;;;;0.80;0.80;;;17.90;94.60;;;;;;10484394;28;20054;-27
2023/01/07 05:23:51;;;;;;;4.28;1.13;;;17.90;94.30;;;;;;10486976;28;20052;-27
2023/01/07 05:28:53;;;;;;;2.00;1.38;;;18.10;93.70;;;;;;10468239;28;20437;-26
2023/01/07 05:33:54;;;;;;;2.53;1.20;;;17.90;94.50;;;;;;10464881;28;20071;-26
2023/01/07 05:38:58;;;;;;;2.27;1.40;;;18.00;94.40;;;;;;10464201;28;20102;-26
2023/01/07 05:43:59;;;;;;;3.28;1.05;;;17.80;95.10;;;;;;10468547;28;20091;-25
2023/01/07 05:49:01;;;;;;;1.63;0.90;;;17.80;95.00;;;;;;10465906;28;20052;-26
2023/01/07 05:54:06;;;;;;;5.67;2.53;;;17.90;94.40;;;;;;10461877;28;20124;-26
2023/01/07 05:59:08;;;;;;;2.60;1.25;;;17.90;94.20;;;;;;10464203;28;20170;-25
2023/01/07 06:04:09;;;;;;;2.38;1.50;;;18.00;94.30;;;;;;10470968;28;20044;-26
2023/01/07 06:09:13;;;;;;;2.50;1.60;;;18.10;94.10;;;;;;10478251;28;20098;-26
2023/01/07 06:14:15;;;;;;;1.55;1.10;;;17.80;95.00;;;;;;10470817;28;20049;-26
2023/01/07 06:19:17;;;;;;;1.97;0.90;;;17.40;97.50;;;;;;10473511;28;20056;-26
2023/01/07 06:24:20;;;;;;;2.03;1.30;;;17.90;95.60;;;;;;10481802;28;20139;-26
2023/01/07 06:29:22;;;;;;;1.65;1.05;;;18.00;94.60;;;;;;10483352;28;20071;-37
2023/01/07 06:34:24;;;;;;;6.60;1.70;;;17.70;96.40;;;;;;10467202;28;20048;-26
2023/01/07 06:39:27;;;;;;;1.63;0.97;;;17.40;96.80;;;;;;10474353;28;20193;-25
2023/01/07 06:44:29;;;;;;;1.70;1.02;;;18.10;94.90;;;;;;10489193;28;20521;-26
2023/01/07 06:49:31;;;;;;;0.85;0.80;;;18.10;94.30;;;;;;10491600;28;20477;-27
2023/01/07 06:54:34;;;;;;;2.30;1.00;;;18.30;93.60;;;;;;10484515;28;20084;-26
2023/01/07 06:59:36;;;;;;;1.73;1.10;;;17.60;98.10;;;;;;10482747;28;20436;-26
2023/01/07 07:04:38;;;;;;;6.77;1.80;;;17.20;95.00;;;;;;10483574;28;20444;-26
2023/01/07 07:09:41;;;;;;;2.03;1.33;;;17.40;98.20;;;;;;10487483;28;20753;-26
2023/01/07 07:14:43;;;;;;;1.52;0.90;;;17.50;92.40;;;;;;10486602;28;20478;-27
2023/01/07 07:19:45;;;;;;;0.97;0.70;;;17.10;99.10;;;;;;10491763;28;20045;-27
2023/01/07 07:24:48;;;;;;;3.50;1.47;;;17.30;97.90;;;;;;10490785;28;20498;-25
2023/01/07 07:29:50;;;;;;;1.67;0.80;;;17.10;99.90;;;;;;10489946;28;20055;-25
2023/01/07 07:34:52;;;;;;;1.67;1.20;;;18.00;95.50;;;;;;10492410;28;20041;-27
2023/01/07 07:39:55;;;;;;;2.17;1.00;;;18.00;94.40;;;;;;10485304;28;20432;-26
2023/01/07 07:44:57;;;;;;;1.55;1.23;;;17.80;96.20;;;;;;10482915;28;20483;-27
2023/01/07 07:49:59;;;;;;;3.07;1.10;;;17.10;94.10;;;;;;10490865;28;20184;-26
2023/01/07 07:55:03;;;;;;;0.93;0.68;;;17.70;92.00;;;;;;10483030;28;20056;-38
2023/01/07 08:00:06;;;;;;;1.33;0.77;;;18.10;96.00;;;;;;10485670;28;20581;-27
2023/01/07 08:05:11;;;;;;;1.08;0.88;;;17.50;90.60;;;;;;10488661;28;20102;-26
2023/01/07 08:10:14;;;;;;;1.70;0.77;;;17.60;93.70;;;;;;10484816;28;20044;-27
2023/01/07 08:15:16;;;;;;;2.72;0.73;;;17.40;95.80;;;;;;10489593;28;20048;-26
2023/01/07 08:20:18;;;;;;;2.17;0.95;;;17.40;87.30;;;;;;10481506;28;20134;-27
2023/01/07 08:25:22;;;;;;;2.42;0.85;;;17.40;96.30;;;;;;10475449;28;20056;-27
2023/01/07 08:30:24;;;;;;;1.77;0.70;;;18.00;93.80;;;;;;10467742;28;20071;-26
2023/01/07 08:35:26;;;;;;;0.90;0.63;;;18.10;94.90;;;;;;10484997;28;20129;-26
2023/01/07 08:40:29;;;;;;;2.60;0.50;;;18.00;91.40;;;;;;10487470;28;20048;-26
2023/01/07 08:45:33;;;;;;;0.75;0.30;;;18.20;95.20;;;;;;10478231;28;20103;-26
2023/01/07 08:50:35;;;;;;;6.45;0.50;;;18.40;91.00;;;;;;10482333;28;20084;-25
2023/01/07 08:55:38;;;;;;;2.27;0.70;;;18.00;97.60;;;;;;10483830;28;20036;-26
2023/01/07 09:00:40;;;;;;;6.72;1.27;;;18.30;91.90;;;;;;10486873;28;20220;-26
2023/01/07 09:05:42;;;;;;;2.92;0.70;;;18.10;95.00;;;;;;10476821;28;20056;-26
2023/01/07 09:10:46;;;;;;;2.60;0.77;;;18.60;92.80;;;;;;10476068;28;20052;-26
2023/01/07 09:15:48;;;;;;;4.65;1.08;;;18.00;95.30;;;;;;10473756;28;20055;-27
2023/01/07 09:20:50;;;;;;;4.07;0.98;;;18.40;92.30;;;;;;10478076;28;20515;-26
2023/01/07 09:25:53;;;;;;;7.03;0.43;;;18.20;92.90;;;;;;10481199;28;20457;-26
2023/01/07 09:30:55;;;;;;;2.03;0.85;;;19.00;90.00;;;;;;10473365;28;20052;-26
2023/01/07 09:35:57;;;;;;;1.33;0.90;;;18.50;91.00;;;;;;10476010;28;20078;-26
2023/01/07 09:41:00;;;;;;;3.38;0.57;;;18.90;90.40;;;;;;10471156;28;20059;-27
2023/01/07 09:46:07;;;;;;;4.25;0.60;;;18.50;92.50;;;;;;10484703;28;20032;-26
2023/01/07 09:51:15;;;;;;;0.77;0.38;;;18.90;91.10;;;;;;10476276;28;20068;-26
2023/01/07 09:56:25;;;;;;;4.85;1.08;;;18.90;91.70;;;;;;10489884;28;20119;-26
2023/01/07 10:01:36;;;;;;;1.50;0.57;;;18.80;90.60;;;;;;10464915;28;20057;-26
2023/01/07 10:06:46;;;;;;;4.10;0.43;;;18.90;91.80;;;;;;10460690;28;20044;-27
2023/01/07 10:12:01;;;;;;;8.20;0.80;;;19.00;90.60;;;;;;10472986;28;20555;-26
2023/01/07 10:17:12;;;;;;;3.90;0.73;;;18.70;90.60;;;;;;10492949;28;20048;-26
2023/01/07 10:22:21;;;;;;;1.35;1.13;;;18.70;91.50;;;;;;10487616;28;20045;-27
2023/01/07 10:27:37;;;;;;;4.03;0.82;;;18.90;91.20;;;;;;10480414;28;20067;-27
2023/01/07 10:32:39;;;;;;;0.40;0.35;;;18.90;90.80;;;;;;10484721;28;20090;-27
2023/01/07 10:37:43;;;;;;;0.80;0.50;;;19.00;90.70;;;;;;10474825;28;20059;-27
2023/01/07 10:42:52;;;;;;;4.25;1.25;;;18.80;90.80;;;;;;10470034;28;20432;-26
2023/01/07 10:48:12;;;;;;;0.50;0.30;;;18.50;87.40;;;;;;10472276;28;20059;-27
2023/01/07 10:53:25;;;;;;;5.00;0.70;;;18.80;90.50;;;;;;10472124;28;20543;-27
2023/01/07 10:58:39;;;;;;;3.08;1.23;;;18.70;90.60;;;;;;10467274;28;20071;-26
2023/01/07 11:03:42;;;;;;;0.85;0.50;;;18.30;90.30;;;;;;10468627;28;20071;-28
2023/01/07 11:08:44;;;;;;;0.95;0.50;;;18.60;91.10;;;;;;10467392;28;20040;-25
2023/01/07 11:13:58;;;;;;;1.05;0.47;;;18.70;90.40;;;;;;10476082;28;20040;-27
2023/01/07 11:19:04;;;;;;;2.10;0.32;;;18.70;90.70;;;;;;10487148;28;20045;-27
2023/01/07 11:24:31;;;;;;;1.17;0.40;;;19.00;89.90;;;;;;10482413;28;20147;-26
2023/01/07 11:29:38;;;;;;;3.13;0.68;;;18.70;90.70;;;;;;10476452;28;20454;-26
2023/01/07 11:34:55;;;;;;;0.35;0.32;;;18.50;91.50;;;;;;10479838;28;20052;-27
2023/01/07 11:39:59;;;;;;;0.80;0.43;;;18.80;90.80;;;;;;10492769;28;20112;-26
2023/01/07 11:45:13;;;;;;;1.25;0.50;;;18.70;91.00;;;;;;10489943;28;20041;-27
2023/01/07 11:50:28;;;;;;;1.27;0.73;;;18.80;90.00;;;;;;10479799;28;20051;-26
2023/01/07 11:55:32;;;;;;;0.85;0.43;;;18.60;88.90;;;;;;10484398;28;20044;-25
2023/01/07 12:00:35;;;;;;;1.80;0.52;;;18.60;90.70;;;;;;10484540;28;20079;-26
2023/01/07 12:05:39;;;;;;;2.50;0.90;;;18.70;90.00;;;;;;10466173;28;20079;-27
2023/01/07 12:10:42;;;;;;;1.35;0.70;;;18.60;90.60;;;;;;10468534;28;20049;-27
2023/01/07 12:15:51;;;;;;;0.57;0.50;;;18.60;79.80;;;;;;10483881;28;20041;-25
2023/01/07 12:21:33;;;;;;;3.30;0.73;;;18.40;91.10;;;;;;10471410;28;20482;-26
2023/01/07 12:26:46;;;;;;;2.42;0.93;;;18.40;91.80;;;;;;10487485;28;20068;-26
2023/01/07 12:32:14;;;;;;;2.35;0.60;;;18.70;89.20;;;;;;10489520;28;20492;-26
2023/01/07 12:37:28;;;;;;;2.83;0.75;;;18.70;90.10;;;;;;10483360;28;20082;-26
2023/01/07 12:42:36;;;;;;;1.27;0.52;;;18.80;89.10;;;;;;10477374;28;20049;-27
2023/01/07 12:47:49;;;;;;;2.15;0.70;;;18.70;90.10;;;;;;10478014;28;20486;-26
2023/01/07 12:52:57;;;;;;;1.40;0.73;;;18.70;89.30;;;;;;10483808;28;20052;-27
2023/01/07 12:58:12;;;;;;;2.33;0.80;;;18.50;90.90;;;;;;10455906;28;20057;-25
2023/01/07 13:03:37;;;;;;;1.42;0.73;;;18.60;90.40;;;;;;10459993;28;20134;-26
2023/01/07 13:08:45;;;;;;;1.77;0.63;;;18.30;90.70;;;;;;10464653;28;20041;-27
2023/01/07 13:13:51;;;;;;;3.08;0.55;;;18.50;90.50;;;;;;10462370;28;20109;-27
2023/01/07 13:18:55;;;;;;;1.50;0.70;;;18.40;91.00;;;;;;10482416;28;20127;-26
2023/01/07 13:24:09;;;;;;;0.60;0.60;;;18.70;88.40;;;;;;10486906;28;20044;-26
2023/01/07 13:29:25;;;;;;;0.88;0.50;;;18.60;89.00;;;;;;10487644;28;20102;-26
2023/01/07 13:34:48;;;;;;;1.13;0.88;;;18.70;87.80;;;;;;10482859;28;20143;-26
2023/01/07 13:39:59;;;;;;;;;;;18.60;87.70;;;;;;10484684;28;20084;-27
2023/01/07 13:45:10;;;;;;;0.35;0.20;;;18.60;87.90;;;;;;10490380;28;19968;-27
2023/01/07 13:50:23;;;;;;;1.10;0.67;;;18.70;87.90;;;;;;10462883;28;20049;-25
2023/01/07 13:55:32;;;;;;;1.33;0.70;;;18.60;87.80;;;;;;10458742;28;20394;-25
2023/01/07 14:00:39;;;;;;;3.83;0.75;;;18.30;89.40;;;;;;10459793;28;20383;-26
2023/01/07 14:05:43;;;;;;;1.40;1.05;;;18.70;87.00;;;;;;10459816;28;20113;-25
2023/01/07 14:10:53;;;;;;;2.45;1.00;;;17.80;91.30;;;;;;10468647;28;20139;-27
2023/01/07 14:16:11;;;;;;;4.60;1.08;;;18.30;77.60;;;;;;10469166;28;20041;-26
2023/01/07 14:21:29;;;;;;;1.50;0.70;;;18.70;86.30;;;;;;10481595;28;20056;-26
2023/01/07 14:26:35;;;;;;;2.08;0.60;;;18.80;85.30;;;;;;10484800;28;20041;-27
2023/01/07 14:31:37;;;;;;;1.92;0.98;;;18.80;85.80;;;;;;10483245;28;20067;-26
2023/01/07 14:37:14;;;;;;;1.20;0.70;;;18.90;84.00;;;;;;10484682;28;20044;-27
2023/01/07 14:42:41;;;;;;;4.38;0.73;;;18.80;84.90;;;;;;10483758;28;20090;-26
2023/01/07 14:47:53;;;;;;;2.60;1.27;;;18.90;85.30;;;;;;10480589;28;20040;-27
2023/01/07 14:53:34;;;;;;;1.83;0.75;;;18.80;87.10;;;;;;10480313;28;20040;-28
2023/01/07 14:58:54;;;;;;;1.38;1.10;;;18.80;88.30;;;;;;10486432;28;20044;-27
2023/01/07 15:04:27;;;;;;;4.07;0.73;;;19.10;80.90;;;;;;10495842;28;20064;-26
2023/01/07 15:20:38;;;;;;;1.02;0.52;;;19.00;87.50;;;;;;10495703;28;20049;-28
2023/01/07 15:25:56;;;;;;;2.72;0.63;;;19.20;87.30;;;;;;10493498;28;20367;-27
2023/01/07 15:31:03;;;;;;;0.75;0.75;;;19.10;88.00;;;;;;10471201;28;20041;-26
2023/01/07 15:36:11;;;;;;;2.90;0.77;;;19.30;87.10;;;;;;10478245;28;20090;-26
2023/01/07 15:41:27;;;;;;;5.20;0.80;;;18.70;88.10;;;;;;10482241;28;20041;-26
2023/01/07 15:46:30;;;;;;;2.90;0.80;;;19.30;87.70;;;;;;10490635;28;20114;-26
2023/01/07 15:51:36;;;;;;;1.55;0.95;;;19.10;89.10;;;;;;10487056;28;20119;-27
2023/01/07 15:56:39;;;;;;;1.50;0.80;;;19.00;88.90;;;;;;10470399;28;20040;-26
2023/01/07 16:01:46;;;;;;;1.35;0.70;;;18.90;90.10;;;;;;10487173;28;20056;-26
2023/01/07 16:06:48;;;;;;;6.22;1.13;;;18.30;92.70;;;;;;10482649;28;20082;-26
2023/01/07 16:11:53;;;;;;;5.63;0.80;;;18.90;90.40;;;;;;10491983;28;20045;-26
2023/01/07 16:17:14;;;;;;;1.90;0.93;;;18.60;92.10;;;;;;10487303;28;20051;-27
2023/01/07 16:22:18;;;;;;;2.05;1.38;;;18.50;90.70;;;;;;10482381;28;20053;-26
2023/01/07 16:27:28;;;;;;;3.85;1.95;;;17.90;92.40;;;;;;10474935;28;20071;-26
2023/01/07 16:32:31;;;;;;;3.80;1.13;;;17.70;94.50;;;;;;10481391;28;20068;-27
2023/01/07 16:37:35;;;;;;;2.00;1.20;;;17.70;94.00;;;;;;10488938;28;20089;-27
2023/01/07 16:42:38;;;;;;;4.38;1.10;;;17.10;83.40;;;;;;10489814;28;20119;-26
2023/01/07 16:47:40;;;;;;;2.38;1.35;;;16.70;93.80;;;;;;10488144;28;20052;-26
2023/01/07 16:52:50;;;;;;;3.53;1.50;;;16.80;98.90;;;;;;10490529;28;20541;-26
2023/01/07 16:57:53;;;;;;;2.70;1.40;;;16.70;99.90;;;;;;10468014;28;20088;-27
2023/01/07 17:02:58;;;;;;;2.13;1.30;;;17.50;96.70;;;;;;10487743;28;20078;-27
2023/01/07 17:08:03;;;;;;;2.45;1.63;;;18.00;94.80;;;;;;10482790;28;20051;-26
2023/01/07 17:13:30;;;;;;;3.85;1.75;;;17.40;92.90;;;;;;10467345;28;20095;-26
2023/01/07 17:18:33;;;;;;;2.50;1.88;;;16.90;99.70;;;;;;10456285;28;20121;-26
2023/01/07 17:23:44;;;;;;;5.75;1.13;;;16.60;95.70;;;;;;10483264;28;20036;-27
2023/01/07 17:28:50;;;;;;;1.95;1.10;;;18.60;93.10;;;;;;10476167;28;20048;-27
2023/01/07 17:33:53;;;;;;;4.80;0.98;;;19.00;91.30;;;;;;10480724;28;20371;-27
2023/01/07 17:38:55;;;;;;;4.88;1.35;;;19.60;86.20;;;;;;10485812;28;20063;-27
2023/01/07 17:43:58;;;;;;;6.10;1.15;;;19.50;77.60;;;;;;10472338;28;20486;-26
2023/01/07 17:49:00;;;;;;;7.15;1.33;;;18.30;93.10;;;;;;10481109;28;20086;-27
2023/01/07 17:54:02;;;;;;;3.45;0.85;;;17.50;95.90;;;;;;10475133;28;20045;-27
2023/01/07 17:59:05;;;;;;;2.53;1.25;;;19.10;90.90;;;;;;10476610;28;20550;-25
2023/01/07 18:04:07;;;;;;;7.78;1.90;;;19.00;86.60;;;;;;10480345;28;20143;-27
2023/01/07 18:09:10;;;;;;;6.13;1.40;;;19.00;91.40;;;;;;10479031;28;20938;-27
2023/01/07 18:14:14;;;;;;;3.65;1.20;;;18.80;90.80;;;;;;10483003;28;20318;-27
2023/01/07 18:19:17;;;;;;;7.00;1.48;;;19.00;92.10;;;;;;10483192;28;20496;-27
2023/01/07 18:24:20;;;;;;;5.32;1.65;;;18.60;93.20;;;;;;10483593;28;20646;-27
2023/01/07 18:29:24;;;;;;;6.28;2.38;;;19.30;90.60;;;;;;10480377;28;20102;-26
2023/01/07 18:34:25;;;;;;;3.63;1.25;;;18.30;94.00;;;;;;10488493;28;20648;-27
2023/01/07 18:39:28;;;;;;;4.43;1.70;;;18.70;93.40;;;;;;10487488;28;20064;-27
2023/01/07 18:44:31;;;;;;;4.60;1.58;;;18.90;92.30;;;;;;10483480;28;20048;-27
2023/01/07 18:49:33;;;;;;;3.55;1.63;;;18.70;91.90;;;;;;10479346;28;20103;-27
2023/01/07 18:54:36;;;;;;;3.90;1.55;;;18.50;92.40;;;;;;10487532;28;20052;-27
2023/01/07 18:59:40;;;;;;;2.78;1.35;;;18.50;92.20;;;;;;10485663;28;20044;-26
2023/01/07 19:04:42;;;;;;;3.05;1.23;;;18.30;91.60;;;;;;10491868;28;20359;-27
2023/01/07 19:09:44;;;;;;;2.25;1.00;;;18.80;93.00;;;;;;10481991;28;20045;-26
2023/01/07 19:14:48;;;;;;;2.50;1.30;;;18.90;92.00;;;;;;10488697;28;20056;-26
2023/01/07 19:19:50;;;;;;;2.33;1.30;;;19.00;92.10;;;;;;10485076;28;20144;-27
2023/01/07 19:24:52;;;;;;;;;;;18.70;89.40;;;;;;10491899;28;20502;-26
2023/01/07 19:29:55;;;;;;;2.97;1.65;;;18.60;93.90;;;;;;10493524;28;19916;-26
2023/01/07 19:34:57;;;;;;;4.05;1.83;;;17.50;95.30;;;;;;10490886;28;20044;-26
2023/01/07 19:39:59;;;;;;;4.80;2.25;;;17.90;94.20;;;;;;10486472;28;20041;-27
2023/01/07 19:45:03;;;;;;;5.50;2.07;;;18.50;90.80;;;;;;10489041;28;20076;-27
2023/01/07 19:50:05;;;;;;;1.60;1.25;;;18.50;93.80;;;;;;10485264;28;20521;-27
2023/01/07 19:55:07;;;;;;;;;;;18.30;95.10;;;;;;10484683;28;20060;-27
2023/01/07 20:00:12;;;;;;;2.60;1.77;;;18.00;97.00;;;;;;10489997;28;19928;-26
2023/01/07 20:05:14;;;;;;;4.80;2.08;;;18.60;94.90;;;;;;10484321;28;20045;-26
2023/01/07 20:10:16;;;;;;;8.82;1.92;;;17.80;94.30;;;;;;10483931;28;20127;-27
2023/01/07 20:15:19;;;;;;;8.73;1.88;;;18.70;94.30;;;;;;10482800;28;20040;-27
2023/01/07 20:20:23;;;;;;;8.20;1.25;;;19.00;92.70;;;;;;10478412;28;20051;-27
2023/01/07 20:25:25;;;;;;;3.90;1.90;;;18.80;94.10;;;;;;10484225;28;20041;-27
2023/01/07 20:30:28;;;;;;;;;;;19.00;93.30;;;;;;10489532;28;20091;-27
2023/01/07 20:35:30;;;;;;;5.07;1.80;;;18.90;93.40;;;;;;10482457;28;20365;-27
2023/01/07 20:40:32;;;;;;;8.05;2.72;;;18.80;94.00;;;;;;10489186;28;20498;-27
2023/01/07 20:45:36;;;;;;;4.70;2.05;;;18.50;93.50;;;;;;10480498;28;20047;-26
2023/01/07 20:50:38;;;;;;;3.45;1.98;;;18.00;96.20;;;;;;10472642;28;20049;-25
2023/01/07 20:55:40;;;;;;;4.78;1.25;;;18.00;88.50;;;;;;10487793;28;20474;-26
2023/01/07 21:00:44;;;;;;;3.33;1.70;;;19.00;92.70;;;;;;10467902;28;20040;-26
2023/01/07 21:05:46;;;;;;;7.97;2.28;;;18.00;96.00;;;;;;10482718;28;20045;-26
2023/01/07 21:10:48;;;;;;;5.45;2.10;;;17.90;96.70;;;;;;10477328;28;20057;-27
2023/01/07 21:15:51;;;;;;;5.72;2.40;;;19.00;92.80;;;;;;10480382;28;20482;-26
2023/01/07 21:20:53;;;;;;;5.60;2.42;;;16.20;99.90;;;;;;10481524;28;20571;-27
2023/01/07 21:25:55;;;;;;;5.80;2.40;;;15.20;99.90;;;;;;10481071;28;20079;-29
2023/01/07 21:31:04;;;;;;;4.87;2.10;;;15.70;95.80;;;;;;10487691;28;20041;-27
2023/01/07 21:36:07;;;;;;;3.05;1.75;;;16.60;97.90;;;;;;10480114;28;20064;-27
2023/01/07 21:41:12;;;;;;;8.48;2.45;;;15.90;98.00;;;;;;10483421;28;20048;-28
2023/01/07 21:46:15;;;;;;;5.18;2.72;;;16.40;93.50;;;;;;10482616;28;20056;-26
2023/01/07 21:51:19;;;;;;;6.55;2.20;;;14.60;99.90;;;;;;10487398;28;20878;-28
2023/01/07 21:56:21;;;;;;;6.05;1.92;;;16.20;99.90;;;;;;10474934;28;20124;-28
2023/01/07 22:01:27;;;;;;;10.13;2.72;;;15.30;99.90;;;;;;10476192;28;20543;-28
2023/01/07 22:06:30;;;;;;;4.53;1.50;;;14.00;99.90;;;;;;10465674;28;20136;-26
2023/01/07 22:11:34;;;;;;;3.53;2.13;;;13.70;99.90;;;;;;10484536;28;20044;-27
2023/01/07 22:16:37;;;;;;;3.92;1.58;;;11.90;99.90;;;;;;10472208;28;20123;-25
2023/01/07 22:21:39;;;;;;;7.85;1.98;;;13.10;99.90;;;;;;10484498;28;20666;-27
2023/01/07 22:26:41;;;;;;;1.63;0.70;;;11.90;99.90;;;;;;10473777;28;20040;-28
2023/01/07 22:31:47;;;;;;;3.05;0.82;;;11.10;99.90;;;;;;10482915;28;20041;-27
2023/01/07 22:36:54;;;;;;;3.03;1.08;;;11.60;99.90;;;;;;10476758;28;20049;-27
2023/01/07 22:42:00;;;;;;;10.80;1.45;;;10.90;99.90;;;;;;10471413;28;20083;-27
2023/01/07 22:47:07;;;;;;;8.05;1.15;;;11.90;99.90;;;;;;10462631;28;20044;-27
2023/01/07 22:52:09;;;;;;;10.50;1.65;;;12.00;99.90;;;;;;10475206;28;20145;-26
2023/01/07 22:57:13;;;;;;;5.95;0.93;;;11.90;99.90;;;;;;10475004;28;20047;-28
2023/01/07 23:02:16;;;;;;;11.63;1.08;;;12.10;99.90;;;;;;10481845;28;20080;-27
2023/01/07 23:07:18;;;;;;;8.38;1.10;;;12.40;99.90;;;;;;10477672;28;20040;-27
2023/01/07 23:12:20;;;;;;;5.70;1.05;;;12.50;99.90;;;;;;10477026;28;20433;-27
2023/01/07 23:17:25;;;;;;;10.75;1.50;;;12.30;99.90;;;;;;10479326;28;20170;-26
2023/01/07 23:22:26;;;;;;;12.77;1.58;;;12.30;99.90;;;;;;10485030;28;20529;-26
2023/01/07 23:27:28;;;;;;;9.75;2.63;;;11.90;99.90;;;;;;10487503;28;20051;-26
2023/01/07 23:32:31;;;;;;;6.78;1.02;;;11.40;99.90;;;;;;10487959;28;20131;-27
2023/01/07 23:37:33;;;;;;;6.15;1.02;;;11.30;99.90;;;;;;10489949;28;20098;-26
2023/01/07 23:42:35;;;;;;;8.85;1.40;;;12.40;99.90;;;;;;10493503;28;20083;-26
2023/01/07 23:47:38;;;;;;;11.60;1.70;;;12.00;99.90;;;;;;10492830;28;20128;-26
2023/01/07 23:52:40;;;;;;;7.45;1.17;;;12.20;99.90;;;;;;10492295;28;20085;-28
2023/01/07 23:57:42;;;;;;;6.57;1.00;;;14.60;99.90;;;;;;10490569;28;20095;-28
